createdAt,value
2023-02-10T00:00:00.649Z,66.70
2023-02-10T00:01:00.603Z,68.40
2023-02-10T00:02:00.600Z,68.20
2023-02-10T00:03:00.729Z,67.60
2023-02-10T00:04:00.620Z,68.10
2023-02-10T00:05:00.574Z,67.50
2023-02-10T00:06:00.574Z,66.00
2023-02-10T00:07:00.553Z,67.90
2023-02-10T00:08:00.568Z,68.30
2023-02-10T00:09:00.536Z,69.10
2023-02-10T00:10:00.534Z,68.00
2023-02-10T00:11:00.505Z,68.80
2023-02-10T00:12:00.529Z,66.30
2023-02-10T00:13:00.507Z,67.50
2023-02-10T00:14:00.506Z,68.50
2023-02-10T00:15:00.476Z,65.70
2023-02-10T00:16:00.492Z,66.80
2023-02-10T00:17:00.472Z,67.20
2023-02-10T00:18:00.477Z,67.10
2023-02-10T00:19:00.445Z,66.60
2023-02-10T00:20:00.427Z,65.70
2023-02-10T00:21:00.405Z,67.40
2023-02-10T00:22:00.400Z,66.40
2023-02-10T00:23:00.398Z,66.40
2023-02-10T00:24:00.376Z,67.10
2023-02-10T00:25:00.367Z,67.60
2023-02-10T00:26:00.380Z,66.60
2023-02-10T00:27:00.356Z,65.00
2023-02-10T00:28:00.412Z,67.10
2023-02-10T00:29:00.341Z,70.50
2023-02-10T00:30:00.316Z,77.00
2023-02-10T00:31:00.317Z,71.70
2023-02-10T00:32:00.299Z,68.70
2023-02-10T00:33:00.310Z,67.60
2023-02-10T00:34:00.283Z,66.20
2023-02-10T00:35:00.278Z,66.60
2023-02-10T00:36:00.331Z,65.00
2023-02-10T00:37:00.266Z,66.80
2023-02-10T00:38:00.249Z,68.20
2023-02-10T00:39:00.218Z,66.30
2023-02-10T00:40:00.749Z,66.90
2023-02-10T00:41:00.205Z,66.20
2023-02-10T00:42:00.198Z,66.00
2023-02-10T00:43:00.206Z,68.90
2023-02-10T00:44:00.182Z,66.50
2023-02-10T00:45:00.168Z,69.20
2023-02-10T00:46:00.167Z,68.40
2023-02-10T00:47:00.208Z,68.60
2023-02-10T00:48:00.168Z,68.30
2023-02-10T00:49:00.128Z,67.30
2023-02-10T00:50:00.144Z,68.10
2023-02-10T00:51:00.095Z,69.90
2023-02-10T00:52:00.141Z,68.40
2023-02-10T00:53:00.111Z,69.10
2023-02-10T00:54:00.097Z,68.80
2023-02-10T00:55:00.082Z,67.90
2023-02-10T00:56:00.051Z,70.20
2023-02-10T00:57:00.038Z,68.80
2023-02-10T00:58:00.049Z,68.20
2023-02-10T00:59:00.056Z,67.60
2023-02-10T01:00:00.023Z,68.50
2023-02-10T01:01:00.043Z,71.10
2023-02-10T01:01:59.992Z,68.90
2023-02-10T01:03:00.023Z,69.30
2023-02-10T01:03:59.974Z,68.80
2023-02-10T01:04:59.949Z,69.80
2023-02-10T01:05:59.950Z,69.50
2023-02-10T01:06:59.942Z,67.80
2023-02-10T01:07:59.929Z,69.40
2023-02-10T01:08:59.928Z,69.00
2023-02-10T01:09:59.907Z,68.50
2023-02-10T01:10:59.884Z,69.70
2023-02-10T01:11:59.887Z,70.10
2023-02-10T01:13:01.855Z,67.40
2023-02-10T01:13:59.875Z,68.80
2023-02-10T01:14:59.844Z,69.70
2023-02-10T01:15:59.865Z,69.70
2023-02-10T01:16:59.831Z,69.00
2023-02-10T01:17:59.823Z,71.20
2023-02-10T01:18:59.815Z,71.60
2023-02-10T01:19:59.839Z,70.90
2023-02-10T01:20:59.807Z,69.00
2023-02-10T01:21:59.776Z,72.90
2023-02-10T01:22:59.763Z,70.30
2023-02-10T01:23:59.775Z,72.80
2023-02-10T01:24:59.744Z,69.80
2023-02-10T01:25:59.735Z,69.90
2023-02-10T01:26:59.724Z,73.00
2023-02-10T01:27:59.853Z,71.70
2023-02-10T01:28:59.726Z,72.00
2023-02-10T01:29:59.707Z,72.00
2023-02-10T01:30:59.686Z,71.60
2023-02-10T01:31:59.675Z,68.80
2023-02-10T01:32:59.667Z,69.50
2023-02-10T01:33:59.681Z,70.30
2023-02-10T01:34:59.640Z,71.20
2023-02-10T01:35:59.628Z,68.90
2023-02-10T01:36:59.617Z,69.90
2023-02-10T01:37:59.608Z,72.40
2023-02-10T01:38:59.622Z,70.60
2023-02-10T01:39:59.598Z,70.20
2023-02-10T01:40:59.577Z,72.80
2023-02-10T01:41:59.583Z,70.90
2023-02-10T01:42:59.556Z,71.70
2023-02-10T01:43:59.571Z,72.50
2023-02-10T01:44:59.538Z,70.00
2023-02-10T01:45:59.598Z,71.50
2023-02-10T01:46:59.515Z,72.30
2023-02-10T01:47:59.512Z,71.90
2023-02-10T01:48:59.513Z,71.40
2023-02-10T01:49:59.502Z,72.00
2023-02-10T01:50:59.475Z,70.40
2023-02-10T01:51:59.469Z,69.70
2023-02-10T01:52:59.453Z,69.00
2023-02-10T01:53:59.460Z,71.20
2023-02-10T01:54:59.430Z,70.90
2023-02-10T01:55:59.424Z,70.50
2023-02-10T01:56:59.431Z,69.10
2023-02-10T01:57:59.416Z,68.90
2023-02-10T01:58:59.412Z,70.70
2023-02-10T01:59:59.393Z,69.70
2023-02-10T02:00:59.419Z,71.40
2023-02-10T02:01:59.379Z,72.60
2023-02-10T02:02:59.352Z,71.90
2023-02-10T02:03:59.381Z,71.40
2023-02-10T02:04:59.339Z,71.30
2023-02-10T02:05:59.313Z,71.70
2023-02-10T02:06:59.321Z,71.30
2023-02-10T02:07:59.290Z,70.00
2023-02-10T02:08:59.314Z,73.00
2023-02-10T02:09:59.276Z,71.70
2023-02-10T02:10:59.270Z,71.50
2023-02-10T02:11:59.259Z,71.00
2023-02-10T02:12:59.261Z,73.10
2023-02-10T02:13:59.266Z,71.80
2023-02-10T02:14:59.228Z,71.40
2023-02-10T02:15:59.236Z,71.50
2023-02-10T02:16:59.208Z,72.00
2023-02-10T02:17:59.196Z,72.50
2023-02-10T02:18:59.208Z,71.30
2023-02-10T02:19:59.181Z,70.20
2023-02-10T02:20:59.182Z,71.60
2023-02-10T02:21:59.149Z,72.00
2023-02-10T02:22:59.151Z,70.00
2023-02-10T02:23:59.151Z,69.50
2023-02-10T02:24:59.139Z,72.40
2023-02-10T02:25:59.114Z,71.70
2023-02-10T02:26:59.904Z,70.70
2023-02-10T02:27:59.140Z,71.30
2023-02-10T02:28:59.099Z,71.30
2023-02-10T02:29:59.072Z,72.00
2023-02-10T02:30:59.159Z,72.60
2023-02-10T02:31:59.067Z,72.20
2023-02-10T02:32:59.046Z,71.30
2023-02-10T02:33:59.052Z,71.70
2023-02-10T02:34:59.025Z,70.80
2023-02-10T02:35:59.010Z,70.50
2023-02-10T02:36:59.003Z,72.10
2023-02-10T02:37:58.990Z,71.00
2023-02-10T02:38:59.001Z,71.00
2023-02-10T02:39:58.973Z,70.10
2023-02-10T02:40:58.967Z,71.10
2023-02-10T02:41:58.950Z,69.70
2023-02-10T02:42:58.946Z,71.10
2023-02-10T02:43:58.945Z,70.10
2023-02-10T02:44:58.933Z,73.50
2023-02-10T02:45:58.914Z,70.80
2023-02-10T02:46:58.945Z,71.10
2023-02-10T02:47:58.893Z,71.00
2023-02-10T02:48:58.912Z,70.40
2023-02-10T02:49:58.875Z,72.00
2023-02-10T02:50:58.866Z,69.80
2023-02-10T02:51:58.856Z,72.40
2023-02-10T02:52:58.848Z,69.90
2023-02-10T02:53:58.841Z,71.20
2023-02-10T02:54:58.839Z,70.50
2023-02-10T02:55:58.821Z,72.40
2023-02-10T02:56:58.804Z,70.90
2023-02-10T02:57:58.800Z,69.50
2023-02-10T02:58:58.802Z,70.90
2023-02-10T02:59:58.766Z,69.90
2023-02-10T03:00:58.775Z,71.30
2023-02-10T03:01:58.776Z,70.80
2023-02-10T03:02:58.744Z,71.80
2023-02-10T03:03:58.801Z,72.30
2023-02-10T03:04:58.724Z,69.70
2023-02-10T03:05:58.713Z,71.30
2023-02-10T03:06:58.698Z,71.20
2023-02-10T03:07:58.705Z,71.30
2023-02-10T03:08:58.706Z,70.60
2023-02-10T03:09:58.667Z,68.80
2023-02-10T03:10:58.705Z,69.40
2023-02-10T03:11:58.647Z,70.80
2023-02-10T03:12:58.641Z,70.10
2023-02-10T03:13:58.656Z,70.50
2023-02-10T03:14:58.644Z,71.10
2023-02-10T03:15:58.668Z,70.80
2023-02-10T03:16:58.599Z,71.90
2023-02-10T03:17:58.589Z,69.40
2023-02-10T03:18:58.599Z,71.90
2023-02-10T03:19:58.580Z,72.20
2023-02-10T03:20:58.576Z,71.40
2023-02-10T03:21:58.552Z,71.50
2023-02-10T03:22:58.537Z,72.20
2023-02-10T03:23:58.561Z,71.30
2023-02-10T03:24:58.516Z,72.30
2023-02-10T03:25:58.507Z,71.30
2023-02-10T03:26:58.497Z,71.60
2023-02-10T03:27:58.505Z,72.00
2023-02-10T03:28:58.486Z,70.10
2023-02-10T03:29:58.462Z,71.20
2023-02-10T03:30:58.455Z,71.20
2023-02-10T03:31:58.464Z,71.60
2023-02-10T03:32:58.428Z,71.80
2023-02-10T03:33:58.427Z,69.80
2023-02-10T03:34:58.409Z,70.60
2023-02-10T03:35:58.387Z,71.40
2023-02-10T03:36:58.388Z,72.50
2023-02-10T03:37:58.366Z,71.70
2023-02-10T03:38:58.381Z,73.20
2023-02-10T03:39:58.354Z,72.20
2023-02-10T03:40:58.348Z,71.20
2023-02-10T03:41:58.338Z,69.80
2023-02-10T03:42:58.322Z,71.70
2023-02-10T03:43:58.331Z,72.90
2023-02-10T03:44:58.309Z,71.30
2023-02-10T03:45:58.310Z,72.60
2023-02-10T03:46:58.289Z,72.80
2023-02-10T03:47:58.277Z,70.90
2023-02-10T03:48:58.279Z,69.80
2023-02-10T03:49:58.249Z,71.20
2023-02-10T03:50:58.246Z,72.30
2023-02-10T03:51:58.245Z,71.80
2023-02-10T03:52:58.218Z,71.50
2023-02-10T03:53:58.221Z,72.60
2023-02-10T03:54:58.192Z,72.90
2023-02-10T03:55:58.185Z,69.50
2023-02-10T03:56:58.192Z,70.90
2023-02-10T03:57:58.162Z,73.80
2023-02-10T03:58:58.248Z,71.80
2023-02-10T03:59:58.153Z,72.50
2023-02-10T04:00:58.186Z,70.70
2023-02-10T04:01:58.135Z,73.50
2023-02-10T04:02:58.115Z,71.60
2023-02-10T04:03:58.125Z,70.90
2023-02-10T04:04:58.094Z,69.90
2023-02-10T04:05:58.421Z,71.60
2023-02-10T04:06:58.084Z,72.00
2023-02-10T04:07:58.057Z,70.70
2023-02-10T04:08:58.066Z,69.80
2023-02-10T04:09:58.065Z,71.20
2023-02-10T04:10:58.057Z,72.10
2023-02-10T04:11:58.015Z,72.50
2023-02-10T04:12:58.015Z,72.80
2023-02-10T04:13:58.002Z,72.50
2023-02-10T04:14:58.016Z,73.30
2023-02-10T04:15:58.004Z,70.20
2023-02-10T04:16:57.973Z,71.20
2023-02-10T04:17:57.980Z,72.30
2023-02-10T04:18:57.946Z,70.70
2023-02-10T04:19:57.947Z,70.50
2023-02-10T04:20:57.927Z,72.20
2023-02-10T04:21:57.917Z,72.70
2023-02-10T04:22:57.909Z,72.90
2023-02-10T04:23:57.898Z,73.20
2023-02-10T04:24:57.930Z,72.50
2023-02-10T04:25:57.871Z,72.40
2023-02-10T04:26:57.879Z,71.40
2023-02-10T04:27:57.896Z,70.70
2023-02-10T04:28:57.848Z,73.40
2023-02-10T04:29:57.886Z,72.00
2023-02-10T04:30:57.960Z,72.70
2023-02-10T04:31:57.877Z,72.50
2023-02-10T04:32:57.814Z,73.30
2023-02-10T04:33:57.805Z,73.30
2023-02-10T04:34:57.805Z,71.00
2023-02-10T04:35:57.779Z,72.20
2023-02-10T04:36:57.766Z,72.90
2023-02-10T04:37:57.757Z,74.20
2023-02-10T04:38:57.771Z,73.80
2023-02-10T04:39:57.772Z,72.50
2023-02-10T04:40:57.738Z,73.50
2023-02-10T04:41:57.717Z,71.50
2023-02-10T04:42:57.715Z,72.00
2023-02-10T04:43:57.691Z,72.60
2023-02-10T04:44:57.711Z,73.10
2023-02-10T04:45:57.684Z,73.20
2023-02-10T04:46:57.726Z,73.40
2023-02-10T04:47:57.656Z,74.30
2023-02-10T04:48:57.674Z,74.90
2023-02-10T04:49:57.655Z,73.10
2023-02-10T04:50:57.660Z,73.30
2023-02-10T04:51:57.634Z,71.70
2023-02-10T04:52:57.618Z,76.40
2023-02-10T04:53:57.593Z,74.60
2023-02-10T04:54:57.606Z,75.60
2023-02-10T04:55:57.573Z,73.60
2023-02-10T04:56:57.564Z,74.50
2023-02-10T04:57:57.577Z,76.00
2023-02-10T04:58:59.822Z,74.90
2023-02-10T04:59:57.555Z,74.90
2023-02-10T05:00:57.608Z,75.00
2023-02-10T05:01:57.534Z,75.20
2023-02-10T05:02:57.511Z,76.80
2023-02-10T05:03:57.493Z,74.40
2023-02-10T05:04:57.503Z,74.70
2023-02-10T05:05:57.603Z,75.00
2023-02-10T05:06:57.464Z,73.80
2023-02-10T05:07:57.463Z,73.70
2023-02-10T05:08:57.436Z,75.80
2023-02-10T05:09:58.859Z,77.90
2023-02-10T05:10:57.433Z,75.40
2023-02-10T05:11:57.404Z,76.10
2023-02-10T05:12:57.521Z,76.00
2023-02-10T05:13:57.396Z,74.10
2023-02-10T05:14:57.409Z,76.50
2023-02-10T05:15:57.435Z,76.50
2023-02-10T05:16:57.364Z,73.90
2023-02-10T05:17:57.344Z,73.60
2023-02-10T05:18:57.345Z,73.90
2023-02-10T05:19:57.334Z,78.40
2023-02-10T05:20:57.315Z,77.50
2023-02-10T05:21:57.306Z,75.00
2023-02-10T05:22:57.306Z,74.30
2023-02-10T05:23:57.284Z,73.90
2023-02-10T05:24:57.305Z,75.00
2023-02-10T05:25:57.265Z,76.00
2023-02-10T05:26:57.254Z,77.30
2023-02-10T05:27:57.262Z,77.20
2023-02-10T05:28:57.239Z,76.80
2023-02-10T05:29:57.236Z,75.90
2023-02-10T05:30:57.226Z,77.10
2023-02-10T05:31:57.280Z,76.90
2023-02-10T05:32:57.188Z,76.30
2023-02-10T05:33:57.187Z,77.00
2023-02-10T05:34:57.197Z,76.50
2023-02-10T05:35:57.159Z,76.00
2023-02-10T05:36:57.164Z,75.40
2023-02-10T05:37:57.129Z,75.70
2023-02-10T05:38:57.131Z,77.90
2023-02-10T05:39:57.137Z,77.00
2023-02-10T05:40:57.126Z,78.90
2023-02-10T05:41:57.091Z,76.70
2023-02-10T05:42:57.092Z,77.10
2023-02-10T05:43:57.104Z,79.10
2023-02-10T05:44:57.092Z,78.40
2023-02-10T05:45:57.061Z,76.80
2023-02-10T05:46:57.054Z,76.30
2023-02-10T05:47:57.034Z,77.30
2023-02-10T05:48:57.026Z,77.70
2023-02-10T05:49:57.039Z,77.90
2023-02-10T05:50:57.017Z,77.80
2023-02-10T05:51:57.008Z,77.00
2023-02-10T05:52:57.039Z,78.10
2023-02-10T05:53:56.982Z,79.80
2023-02-10T05:54:56.986Z,78.30
2023-02-10T05:55:56.965Z,77.90
2023-02-10T05:56:56.948Z,78.40
2023-02-10T05:57:56.927Z,78.60
2023-02-10T05:58:56.928Z,74.90
2023-02-10T05:59:56.929Z,76.20
2023-02-10T06:00:56.949Z,76.90
2023-02-10T06:01:57.126Z,75.60
2023-02-10T06:02:56.932Z,76.30
2023-02-10T06:03:56.876Z,77.90
2023-02-10T06:04:56.889Z,77.40
2023-02-10T06:05:56.849Z,74.50
2023-02-10T06:06:56.839Z,77.80
2023-02-10T06:07:56.852Z,76.10
2023-02-10T06:08:56.839Z,75.70
2023-02-10T06:09:56.837Z,76.80
2023-02-10T06:10:56.812Z,75.70
2023-02-10T06:11:56.794Z,77.20
2023-02-10T06:12:56.793Z,74.70
2023-02-10T06:13:56.781Z,75.60
2023-02-10T06:14:56.780Z,76.80
2023-02-10T06:15:56.751Z,77.30
2023-02-10T06:16:56.759Z,76.80
2023-02-10T06:17:56.734Z,78.10
2023-02-10T06:18:56.722Z,76.90
2023-02-10T06:19:56.731Z,77.60
2023-02-10T06:20:56.704Z,77.60
2023-02-10T06:21:56.694Z,76.30
2023-02-10T06:22:56.675Z,76.30
2023-02-10T06:23:56.674Z,78.00
2023-02-10T06:24:58.408Z,78.60
2023-02-10T06:25:56.655Z,77.60
2023-02-10T06:26:56.649Z,78.80
2023-02-10T06:27:56.597Z,79.20
2023-02-10T06:28:56.563Z,78.70
2023-02-10T06:29:56.634Z,78.20
2023-02-10T06:30:56.686Z,74.60
2023-02-10T06:31:56.604Z,77.00
2023-02-10T06:32:56.582Z,77.80
2023-02-10T06:33:56.575Z,77.80
2023-02-10T06:34:56.563Z,78.20
2023-02-10T06:35:56.512Z,77.10
2023-02-10T06:36:56.489Z,79.00
2023-02-10T06:37:56.482Z,77.10
2023-02-10T06:38:56.454Z,77.50
2023-02-10T06:39:56.462Z,76.40
2023-02-10T06:40:56.436Z,78.00
2023-02-10T06:41:56.434Z,77.30
2023-02-10T06:42:56.423Z,75.30
2023-02-10T06:43:56.403Z,77.50
2023-02-10T06:44:56.423Z,77.90
2023-02-10T06:45:56.436Z,77.90
2023-02-10T06:46:58.910Z,79.40
2023-02-10T06:47:56.374Z,79.40
2023-02-10T06:48:56.356Z,80.40
2023-02-10T06:49:56.385Z,78.30
2023-02-10T06:50:56.341Z,77.90
2023-02-10T06:51:56.351Z,78.00
2023-02-10T06:52:56.304Z,79.00
2023-02-10T06:53:56.304Z,79.10
2023-02-10T06:54:56.305Z,78.60
2023-02-10T06:55:56.282Z,77.50
2023-02-10T06:56:56.285Z,78.70
2023-02-10T06:57:56.265Z,78.00
2023-02-10T06:58:56.244Z,77.50
2023-02-10T06:59:56.277Z,79.00
2023-02-10T07:00:56.230Z,79.30
2023-02-10T07:01:56.216Z,81.90
2023-02-10T07:02:56.327Z,79.60
2023-02-10T07:03:56.208Z,79.70
2023-02-10T07:04:56.207Z,82.10
2023-02-10T07:05:56.189Z,79.60
2023-02-10T07:06:56.173Z,80.10
2023-02-10T07:07:56.167Z,77.80
2023-02-10T07:08:56.172Z,79.10
2023-02-10T07:09:56.161Z,79.90
2023-02-10T07:10:56.161Z,80.10
2023-02-10T07:11:56.124Z,80.00
2023-02-10T07:12:56.858Z,78.80
2023-02-10T07:13:56.104Z,81.20
2023-02-10T07:14:56.096Z,79.50
2023-02-10T07:15:56.160Z,80.20
2023-02-10T07:16:56.078Z,79.90
2023-02-10T07:17:56.076Z,79.00
2023-02-10T07:18:56.066Z,80.50
2023-02-10T07:19:56.055Z,79.00
2023-02-10T07:20:56.045Z,80.30
2023-02-10T07:21:56.023Z,80.20
2023-02-10T07:22:56.013Z,78.20
2023-02-10T07:23:55.997Z,80.20
2023-02-10T07:24:55.997Z,78.60
2023-02-10T07:25:55.996Z,80.30
2023-02-10T07:26:55.971Z,79.50
2023-02-10T07:27:56.010Z,79.90
2023-02-10T07:28:55.947Z,78.00
2023-02-10T07:29:55.941Z,78.10
2023-02-10T07:30:56.019Z,81.10
2023-02-10T07:31:55.963Z,80.60
2023-02-10T07:32:55.908Z,81.40
2023-02-10T07:33:55.899Z,83.40
2023-02-10T07:34:55.889Z,84.30
2023-02-10T07:35:55.898Z,84.20
2023-02-10T07:36:55.871Z,81.80
2023-02-10T07:37:55.872Z,85.60
2023-02-10T07:38:55.849Z,84.50
2023-02-10T07:39:55.872Z,83.10
2023-02-10T07:40:55.852Z,83.40
2023-02-10T07:41:55.837Z,83.10
2023-02-10T07:42:55.807Z,81.90
2023-02-10T07:43:55.820Z,81.50
2023-02-10T07:44:55.779Z,81.30
2023-02-10T07:45:55.832Z,81.30
2023-02-10T07:46:55.760Z,81.70
2023-02-10T07:47:55.761Z,81.90
2023-02-10T07:48:55.740Z,79.20
2023-02-10T07:49:55.730Z,80.40
2023-02-10T07:50:55.746Z,82.60
2023-02-10T07:51:55.721Z,83.30
2023-02-10T07:52:56.451Z,79.80
2023-02-10T07:53:55.701Z,81.30
2023-02-10T07:54:55.691Z,81.80
2023-02-10T07:55:55.698Z,80.60
2023-02-10T07:56:55.659Z,81.00
2023-02-10T07:57:55.663Z,79.50
2023-02-10T07:58:55.664Z,79.20
2023-02-10T07:59:55.632Z,81.30
2023-02-10T08:00:55.644Z,80.30
2023-02-10T08:01:55.616Z,81.00
2023-02-10T08:02:55.600Z,80.80
2023-02-10T08:03:55.605Z,80.20
2023-02-10T08:04:55.643Z,79.90
2023-02-10T08:05:55.595Z,79.00
2023-02-10T08:06:55.560Z,81.70
2023-02-10T08:07:55.553Z,79.60
2023-02-10T08:08:55.548Z,81.50
2023-02-10T08:09:57.254Z,79.40
2023-02-10T08:10:55.542Z,79.20
2023-02-10T08:11:55.514Z,79.90
2023-02-10T08:12:55.497Z,80.10
2023-02-10T08:13:55.492Z,79.70
2023-02-10T08:14:55.475Z,81.50
2023-02-10T08:15:55.562Z,80.10
2023-02-10T08:16:55.463Z,80.20
2023-02-10T08:17:55.455Z,79.70
2023-02-10T08:18:56.754Z,81.00
2023-02-10T08:19:55.444Z,80.10
2023-02-10T08:20:55.448Z,78.20
2023-02-10T08:21:55.408Z,78.20
2023-02-10T08:22:55.416Z,81.10
2023-02-10T08:23:55.543Z,80.30
2023-02-10T08:24:55.387Z,77.50
2023-02-10T08:25:55.389Z,79.40
2023-02-10T08:26:55.356Z,80.40
2023-02-10T08:27:55.401Z,79.50
2023-02-10T08:28:55.330Z,80.80
2023-02-10T08:29:55.330Z,80.90
2023-02-10T08:30:55.442Z,79.40
2023-02-10T08:31:55.374Z,83.00
2023-02-10T08:32:55.290Z,81.20
2023-02-10T08:33:55.294Z,80.90
2023-02-10T08:34:55.270Z,81.00
2023-02-10T08:35:55.299Z,80.90
2023-02-10T08:36:55.263Z,82.80
2023-02-10T08:37:55.274Z,81.00
2023-02-10T08:38:55.238Z,82.10
2023-02-10T08:39:55.235Z,81.40
2023-02-10T08:40:55.284Z,81.30
2023-02-10T08:41:55.205Z,81.90
2023-02-10T08:42:55.190Z,81.40
2023-02-10T08:43:55.183Z,81.50
2023-02-10T08:44:55.175Z,83.30
2023-02-10T08:45:55.189Z,81.10
2023-02-10T08:46:55.223Z,80.70
2023-02-10T08:47:55.143Z,80.70
2023-02-10T08:48:55.142Z,80.70
2023-02-10T08:49:55.133Z,82.40
2023-02-10T08:50:55.137Z,84.90
2023-02-10T08:51:55.113Z,82.90
2023-02-10T08:52:55.109Z,83.10
2023-02-10T08:53:55.088Z,82.10
2023-02-10T08:54:55.084Z,84.20
2023-02-10T08:55:55.085Z,85.60
2023-02-10T08:56:55.057Z,83.10
2023-02-10T08:57:55.055Z,82.60
2023-02-10T08:58:55.036Z,84.40
2023-02-10T08:59:55.023Z,85.10
2023-02-10T09:00:55.034Z,81.90
2023-02-10T09:01:55.047Z,84.60
2023-02-10T09:02:55.051Z,85.10
2023-02-10T09:03:54.987Z,85.30
2023-02-10T09:05:08.854Z,83.40
2023-02-10T09:05:55.987Z,85.90
2023-02-10T09:06:54.969Z,85.10
2023-02-10T09:07:54.941Z,85.00
2023-02-10T09:08:54.921Z,84.10
2023-02-10T09:09:54.920Z,85.40
2023-02-10T09:10:54.911Z,83.00
2023-02-10T09:11:54.932Z,83.30
2023-02-10T09:12:54.889Z,82.30
2023-02-10T09:13:54.878Z,84.60
2023-02-10T09:14:54.889Z,86.50
2023-02-10T09:15:54.879Z,85.00
2023-02-10T09:16:54.858Z,84.20
2023-02-10T09:17:54.850Z,86.60
2023-02-10T09:18:54.821Z,84.30
2023-02-10T09:19:54.832Z,87.10
2023-02-10T09:20:54.801Z,88.60
2023-02-10T09:21:54.817Z,89.40
2023-02-10T09:22:54.780Z,88.90
2023-02-10T09:23:54.783Z,87.30
2023-02-10T09:24:54.767Z,87.30
2023-02-10T09:25:54.757Z,88.70
2023-02-10T09:26:54.751Z,87.60
2023-02-10T09:27:54.776Z,88.70
2023-02-10T09:28:54.722Z,89.50
2023-02-10T09:29:54.712Z,88.90
2023-02-10T09:30:54.759Z,88.70
2023-02-10T09:31:54.767Z,87.60
2023-02-10T09:32:54.708Z,90.90
2023-02-10T09:33:54.673Z,89.00
2023-02-10T09:34:54.655Z,90.60
2023-02-10T09:35:54.653Z,88.60
2023-02-10T09:36:54.675Z,89.40
2023-02-10T09:37:54.648Z,91.40
2023-02-10T09:38:54.612Z,90.30
2023-02-10T09:39:54.614Z,91.50
2023-02-10T09:40:54.610Z,91.60
2023-02-10T09:41:55.383Z,91.20
2023-02-10T09:42:54.577Z,90.00
2023-02-10T09:43:54.600Z,87.70
2023-02-10T09:44:54.570Z,92.20
2023-02-10T09:45:54.589Z,90.50
2023-02-10T09:46:54.560Z,89.40
2023-02-10T09:47:54.538Z,91.60
2023-02-10T09:48:54.525Z,91.00
2023-02-10T09:49:54.508Z,89.90
2023-02-10T09:50:54.519Z,90.00
2023-02-10T09:51:54.518Z,91.90
2023-02-10T09:52:54.480Z,90.40
2023-02-10T09:53:54.479Z,90.90
2023-02-10T09:54:54.452Z,91.50
2023-02-10T09:55:54.441Z,93.50
2023-02-10T09:56:54.450Z,92.70
2023-02-10T09:57:54.431Z,93.80
2023-02-10T09:58:54.422Z,91.50
2023-02-10T09:59:54.416Z,94.10
2023-02-10T10:00:54.431Z,90.60
2023-02-10T10:01:54.472Z,91.00
2023-02-10T10:02:54.390Z,95.10
2023-02-10T10:03:54.375Z,95.10
2023-02-10T10:04:54.367Z,94.20
2023-02-10T10:05:54.397Z,95.70
2023-02-10T10:06:54.357Z,92.90
2023-02-10T10:07:54.338Z,95.20
2023-02-10T10:08:54.342Z,95.40
2023-02-10T10:09:54.311Z,95.10
2023-02-10T10:10:54.297Z,95.70
2023-02-10T10:11:54.336Z,95.40
2023-02-10T10:12:54.282Z,96.00
2023-02-10T10:13:54.272Z,96.50
2023-02-10T10:14:54.274Z,96.60
2023-02-10T10:15:54.257Z,95.90
2023-02-10T10:16:54.261Z,95.20
2023-02-10T10:17:54.235Z,97.60
2023-02-10T10:18:54.223Z,94.80
2023-02-10T10:19:54.201Z,94.50
2023-02-10T10:20:54.192Z,94.60
2023-02-10T10:21:54.214Z,96.60
2023-02-10T10:22:54.173Z,94.80
2023-02-10T10:23:54.164Z,96.30
2023-02-10T10:24:54.183Z,98.30
2023-02-10T10:25:54.145Z,94.60
2023-02-10T10:26:54.154Z,95.40
2023-02-10T10:27:54.204Z,94.70
2023-02-10T10:28:54.118Z,95.40
2023-02-10T10:29:54.170Z,95.00
2023-02-10T10:30:54.153Z,95.50
2023-02-10T10:31:54.152Z,94.40
2023-02-10T10:32:54.080Z,93.80
2023-02-10T10:33:54.066Z,92.50
2023-02-10T10:34:54.167Z,92.30
2023-02-10T10:35:54.040Z,92.90
2023-02-10T10:36:54.046Z,92.70
2023-02-10T10:37:54.020Z,90.70
2023-02-10T10:38:54.075Z,89.60
2023-02-10T10:39:54.019Z,92.90
2023-02-10T10:40:53.988Z,93.00
2023-02-10T10:41:54.014Z,91.40
2023-02-10T10:42:53.977Z,93.70
2023-02-10T10:43:53.968Z,94.70
2023-02-10T10:44:53.954Z,90.50
2023-02-10T10:45:54.478Z,90.10
2023-02-10T10:46:53.949Z,93.70
2023-02-10T10:47:53.909Z,94.10
2023-02-10T10:48:53.911Z,93.20
2023-02-10T10:49:53.890Z,94.00
2023-02-10T10:50:53.890Z,92.50
2023-02-10T10:51:53.895Z,93.60
2023-02-10T10:52:53.889Z,95.50
2023-02-10T10:53:53.849Z,91.80
2023-02-10T10:54:53.843Z,91.70
2023-02-10T10:55:53.828Z,91.70
2023-02-10T10:56:53.848Z,93.70
2023-02-10T10:57:53.822Z,92.10
2023-02-10T10:58:53.810Z,89.90
2023-02-10T10:59:53.788Z,92.00
2023-02-10T11:00:53.786Z,90.00
2023-02-10T11:01:53.948Z,89.90
2023-02-10T11:02:53.767Z,92.70
2023-02-10T11:03:53.745Z,89.50
2023-02-10T11:04:53.746Z,90.20
2023-02-10T11:05:53.726Z,88.20
2023-02-10T11:06:53.744Z,87.80
2023-02-10T11:07:53.715Z,85.90
2023-02-10T11:08:53.698Z,88.10
2023-02-10T11:09:53.686Z,88.50
2023-02-10T11:10:53.676Z,87.20
2023-02-10T11:11:53.685Z,88.40
2023-02-10T11:12:53.660Z,87.90
2023-02-10T11:13:53.656Z,88.10
2023-02-10T11:14:53.670Z,86.40
2023-02-10T11:15:53.617Z,85.80
2023-02-10T11:16:53.698Z,85.30
2023-02-10T11:17:53.616Z,83.80
2023-02-10T11:18:53.617Z,83.10
2023-02-10T11:19:53.578Z,84.30
2023-02-10T11:20:53.574Z,82.20
2023-02-10T11:21:53.597Z,83.70
2023-02-10T11:22:53.548Z,81.50
2023-02-10T11:23:53.547Z,81.50
2023-02-10T11:24:53.531Z,81.40
2023-02-10T11:25:53.533Z,80.90
2023-02-10T11:26:53.549Z,80.70
2023-02-10T11:27:53.578Z,82.00
2023-02-10T11:28:53.505Z,78.80
2023-02-10T11:29:53.484Z,79.00
2023-02-10T11:30:53.613Z,80.20
2023-02-10T11:31:53.546Z,79.70
2023-02-10T11:32:53.473Z,82.40
2023-02-10T11:33:53.432Z,81.30
2023-02-10T11:34:53.457Z,80.10
2023-02-10T11:35:53.416Z,78.50
2023-02-10T11:36:53.417Z,78.50
2023-02-10T11:37:53.417Z,78.30
2023-02-10T11:38:53.414Z,77.10
2023-02-10T11:39:53.370Z,78.90
2023-02-10T11:40:53.369Z,78.90
2023-02-10T11:41:53.354Z,79.00
2023-02-10T11:42:53.365Z,78.00
2023-02-10T11:43:53.347Z,78.70
2023-02-10T11:44:53.323Z,79.10
2023-02-10T11:45:53.332Z,79.60
2023-02-10T11:46:53.305Z,78.50
2023-02-10T11:47:53.306Z,77.90
2023-02-10T11:48:53.283Z,77.60
2023-02-10T11:49:53.258Z,76.60
2023-02-10T11:50:53.256Z,77.10
2023-02-10T11:51:53.238Z,78.00
2023-02-10T11:52:53.298Z,78.80
2023-02-10T11:53:53.222Z,79.10
2023-02-10T11:54:53.234Z,79.50
2023-02-10T11:55:53.209Z,78.10
2023-02-10T11:56:53.210Z,77.80
2023-02-10T11:57:53.208Z,79.70
2023-02-10T11:58:53.177Z,78.00
2023-02-10T11:59:53.154Z,77.00
2023-02-10T12:00:53.146Z,77.70
2023-02-10T12:01:53.142Z,78.20
2023-02-10T12:02:53.201Z,75.40
2023-02-10T12:03:53.107Z,74.80
2023-02-10T12:04:53.104Z,75.00
2023-02-10T12:05:53.110Z,74.60
2023-02-10T12:06:53.086Z,78.60
2023-02-10T12:07:54.795Z,74.50
2023-02-10T12:08:53.061Z,74.40
2023-02-10T12:09:53.039Z,75.30
2023-02-10T12:10:53.047Z,73.70
2023-02-10T12:11:53.067Z,74.90
2023-02-10T12:12:53.037Z,74.60
2023-02-10T12:13:53.570Z,73.90
2023-02-10T12:14:53.025Z,74.50
2023-02-10T12:15:53.023Z,72.80
2023-02-10T12:16:52.989Z,71.90
2023-02-10T12:17:52.979Z,74.50
2023-02-10T12:18:53.918Z,76.50
2023-02-10T12:19:52.939Z,75.90
2023-02-10T12:20:52.948Z,76.90
2023-02-10T12:21:52.942Z,75.30
2023-02-10T12:22:52.930Z,77.00
2023-02-10T12:23:52.903Z,75.30
2023-02-10T12:24:52.923Z,75.60
2023-02-10T12:25:52.877Z,76.50
2023-02-10T12:26:52.877Z,76.40
2023-02-10T12:27:52.893Z,77.80
2023-02-10T12:28:52.859Z,77.50
2023-02-10T12:29:52.852Z,74.80
2023-02-10T12:30:53.279Z,76.60
2023-02-10T12:31:52.923Z,75.10
2023-02-10T12:32:52.825Z,76.20
2023-02-10T12:33:52.795Z,76.50
2023-02-10T12:34:52.805Z,76.00
2023-02-10T12:35:52.767Z,74.50
2023-02-10T12:36:52.777Z,75.00
2023-02-10T12:37:54.315Z,74.00
2023-02-10T12:38:52.902Z,76.90
2023-02-10T12:39:52.729Z,73.30
2023-02-10T12:40:52.719Z,75.40
2023-02-10T12:41:52.712Z,75.50
2023-02-10T12:42:52.752Z,74.30
2023-02-10T12:43:52.689Z,74.50
2023-02-10T12:44:52.702Z,74.80
2023-02-10T12:45:52.699Z,73.80
2023-02-10T12:46:52.698Z,75.80
2023-02-10T12:47:52.672Z,72.80
2023-02-10T12:48:52.668Z,73.90
2023-02-10T12:49:52.633Z,74.30
2023-02-10T12:50:52.641Z,73.60
2023-02-10T12:51:52.803Z,74.50